Time;durP1;ratioP1;P1;durP2;ratioP2;P2;SDS_P1;SDS_P2;PMS_P1;PMS_P2;Temp;Humidity;BMP_temperature;BMP_pressure;BME280_temperature;BME280_humidity;BME280_pressure;Samples;Min_cycle;Max_cycle;Signal;HPM_P1;HPM_P2
2023/09/25 00:04:33;;;;;;;;;;;12.70;99.90;;;;;;6705370;88;20094;-78
2023/09/25 00:14:34;;;;;;;;;;;12.80;99.90;;;;;;6705123;88;20063;-79
2023/09/25 00:24:34;;;;;;;;;;;12.80;99.90;;;;;;6701577;88;20477;-79
2023/09/25 00:34:34;;;;;;;;;;;12.90;99.90;;;;;;6711689;88;20051;-77
2023/09/25 00:44:35;;;;;;;;;;;12.90;99.90;;;;;;6699728;88;20479;-79
2023/09/25 00:54:36;;;;;;;;;;;13.00;99.90;;;;;;6703538;88;20141;-80
2023/09/25 01:04:36;;;;;;;;;;;12.80;99.90;;;;;;6702287;88;20107;-79
2023/09/25 01:14:37;;;;;;;;;;;12.70;99.90;;;;;;6703248;88;20174;-80
2023/09/25 01:24:38;;;;;;;;;;;12.60;99.90;;;;;;6704324;88;20081;-80
2023/09/25 01:34:38;;;;;;;;;;;12.60;99.90;;;;;;6702201;88;20482;-78
2023/09/25 01:44:39;;;;;;;;;;;12.40;99.90;;;;;;6706236;88;20057;-80
2023/09/25 01:54:39;;;;;;;;;;;12.40;99.90;;;;;;6704037;88;20051;-79
2023/09/25 02:04:40;;;;;;;;;;;12.60;99.90;;;;;;6703134;88;20032;-78
2023/09/25 02:14:40;;;;;;;;;;;12.40;99.90;;;;;;6721137;88;20096;-77
2023/09/25 02:24:41;;;;;;;;;;;12.60;99.90;;;;;;6706641;88;20116;-79
2023/09/25 02:34:41;;;;;;;;;;;12.60;99.90;;;;;;6704530;88;20160;-80
2023/09/25 02:44:42;;;;;;;;;;;12.60;99.90;;;;;;6706567;88;20500;-79
2023/09/25 02:54:42;;;;;;;;;;;12.50;99.90;;;;;;6709324;88;20136;-78
2023/09/25 03:04:43;;;;;;;;;;;12.50;99.90;;;;;;6702863;88;20074;-79
2023/09/25 03:14:43;;;;;;;;;;;12.30;99.90;;;;;;6706302;88;20051;-80
2023/09/25 03:24:44;;;;;;;;;;;12.30;99.90;;;;;;6700880;88;20098;-79
2023/09/25 03:34:44;;;;;;;;;;;12.40;99.90;;;;;;6699193;88;20363;-80
2023/09/25 03:44:44;;;;;;;;;;;12.20;99.90;;;;;;6709175;88;20083;-79
2023/09/25 03:54:45;;;;;;;;;;;11.80;99.90;;;;;;6702768;88;20070;-80
2023/09/25 04:04:45;;;;;;;;;;;11.60;99.90;;;;;;6700300;88;20061;-79
2023/09/25 04:14:46;;;;;;;;;;;11.40;99.90;;;;;;6700070;88;20051;-79
2023/09/25 04:24:47;;;;;;;;;;;11.40;99.90;;;;;;6701791;88;20052;-79
2023/09/25 04:34:47;;;;;;;;;;;11.30;99.90;;;;;;6705173;88;20589;-80
2023/09/25 04:44:48;;;;;;;;;;;11.20;99.90;;;;;;6694635;88;20053;-79
2023/09/25 04:54:49;;;;;;;;;;;11.00;99.90;;;;;;6689436;88;20551;-78
2023/09/25 05:04:49;;;;;;;;;;;10.80;99.90;;;;;;6687943;88;20497;-79
2023/09/25 05:14:50;;;;;;;;;;;10.80;99.90;;;;;;6706312;88;20076;-78
2023/09/25 05:24:50;;;;;;;;;;;10.50;99.90;;;;;;6690908;88;20064;-81
2023/09/25 05:34:51;;;;;;;;;;;10.50;99.90;;;;;;6690173;88;20155;-80
2023/09/25 05:44:51;;;;;;;;;;;10.70;99.90;;;;;;6700307;88;20055;-80
2023/09/25 05:54:51;;;;;;;;;;;10.50;99.90;;;;;;6706607;88;20062;-79
2023/09/25 06:04:52;;;;;;;;;;;10.50;99.90;;;;;;6705361;88;20203;-78
2023/09/25 06:14:53;;;;;;;;;;;10.60;99.90;;;;;;6696321;88;20076;-79
2023/09/25 06:24:53;;;;;;;;;;;10.60;99.90;;;;;;6700270;88;20622;-78
2023/09/25 06:34:54;;;;;;;;;;;10.70;99.90;;;;;;6702438;88;20053;-78
2023/09/25 06:44:54;;;;;;;;;;;11.00;99.90;;;;;;6700160;88;20077;-79
2023/09/25 06:54:55;;;;;;;;;;;11.40;99.90;;;;;;6706347;88;20064;-79
2023/09/25 07:04:58;;;;;;;;;;;11.90;99.90;;;;;;6708998;88;20085;-79
2023/09/25 07:15:02;;;;;;;;;;;12.40;99.90;;;;;;6703785;88;20437;-79
2023/09/25 07:25:03;;;;;;;;;;;13.20;99.90;;;;;;6700720;88;20046;-79
2023/09/25 07:35:07;;;;;;;;;;;13.50;99.90;;;;;;6708884;88;20042;-80
2023/09/25 07:45:11;;;;;;;;;;;13.90;99.90;;;;;;6694515;88;20096;-79
2023/09/25 07:55:12;;;;;;;;;;;14.70;99.90;;;;;;6699370;88;20086;-80
2023/09/25 08:05:18;;;;;;;;;;;15.10;99.90;;;;;;6706578;88;20076;-79
2023/09/25 08:15:18;;;;;;;;;;;16.10;99.90;;;;;;6702739;88;20279;-79
2023/09/25 08:25:19;;;;;;;;;;;16.60;99.90;;;;;;6705321;88;20166;-78
2023/09/25 08:35:20;;;;;;;;;;;17.10;99.90;;;;;;6701607;88;20056;-79
2023/09/25 08:45:21;;;;;;;;;;;17.20;99.90;;;;;;6708902;88;20505;-78
2023/09/25 08:55:22;;;;;;;;;;;17.70;99.90;;;;;;6704828;88;20143;-78
2023/09/25 09:05:23;;;;;;;;;;;18.60;99.90;;;;;;6706968;88;20095;-78
2023/09/25 09:15:27;;;;;;;;;;;18.90;99.90;;;;;;6703665;88;20704;-78
2023/09/25 09:25:29;;;;;;;;;;;19.10;99.90;;;;;;6703077;88;20164;-78
2023/09/25 09:35:30;;;;;;;;;;;19.40;99.90;;;;;;6700713;88;20080;-77
2023/09/25 09:45:31;;;;;;;;;;;19.40;99.90;;;;;;6697252;88;20333;-78
2023/09/25 09:55:34;;;;;;;;;;;19.90;99.90;;;;;;6708154;88;20054;-78
2023/09/25 10:05:51;;;;;;;;;;;19.90;99.90;;;;;;6702750;88;20060;-77
2023/09/25 10:15:53;;;;;;;;;;;20.30;99.90;;;;;;6699896;88;20059;-78
2023/09/25 10:25:57;;;;;;;;;;;20.80;99.00;;;;;;6702797;88;20089;-77
2023/09/25 10:36:04;;;;;;;;;;;20.90;98.10;;;;;;6703370;88;20071;-78
2023/09/25 10:46:05;;;;;;;;;;;21.70;98.50;;;;;;6694359;88;20129;-78
2023/09/25 10:56:05;;;;;;;;;;;21.50;97.80;;;;;;6698399;88;20201;-78
2023/09/25 11:06:07;;;;;;;;;;;22.20;97.70;;;;;;6699602;88;20060;-80
2023/09/25 11:16:08;;;;;;;;;;;22.40;96.70;;;;;;6702706;88;20046;-80
2023/09/25 11:26:10;;;;;;;;;;;22.30;97.30;;;;;;6709356;88;20593;-79
2023/09/25 11:36:11;;;;;;;;;;;22.30;96.50;;;;;;6702355;88;20054;-80
2023/09/25 11:46:12;;;;;;;;;;;22.20;96.70;;;;;;6700918;88;20663;-80
2023/09/25 11:56:13;;;;;;;;;;;22.30;96.70;;;;;;6701172;88;20157;-80
2023/09/25 12:06:13;;;;;;;;;;;22.80;96.70;;;;;;6706811;88;20080;-80
2023/09/25 12:16:14;;;;;;;;;;;23.30;96.30;;;;;;6707659;88;20067;-81
2023/09/25 12:26:16;;;;;;;;;;;23.70;95.60;;;;;;6699504;88;21963;-81
2023/09/25 12:36:16;;;;;;;;;;;23.60;96.10;;;;;;6704424;88;20079;-80
2023/09/25 12:46:17;;;;;;;;;;;23.60;95.60;;;;;;6701180;88;20145;-82
2023/09/25 12:56:17;;;;;;;;;;;23.60;94.50;;;;;;6717127;88;20520;-81
2023/09/25 13:06:18;;;;;;;;;;;23.70;94.80;;;;;;6707960;88;20078;-82
2023/09/25 13:16:18;;;;;;;;;;;24.20;94.20;;;;;;6703143;88;20081;-82
2023/09/25 13:26:19;;;;;;;;;;;24.90;94.20;;;;;;6708120;88;20156;-82
2023/09/25 13:36:20;;;;;;;;;;;23.60;94.10;;;;;;6705894;88;20059;-81
2023/09/25 13:46:20;;;;;;;;;;;23.90;94.20;;;;;;6708716;88;20796;-83
2023/09/25 13:56:22;;;;;;;;;;;23.60;94.10;;;;;;6726704;88;20150;-80
2023/09/25 14:06:24;;;;;;;;;;;24.10;94.30;;;;;;6709953;88;20694;-82
2023/09/25 14:16:24;;;;;;;;;;;24.40;93.30;;;;;;6708711;88;20480;-81
2023/09/25 14:26:25;;;;;;;;;;;23.10;94.30;;;;;;6716614;88;20075;-81
2023/09/25 14:36:26;;;;;;;;;;;23.10;95.00;;;;;;6707945;88;20065;-80
2023/09/25 14:46:26;;;;;;;;;;;23.60;94.30;;;;;;6709560;88;20076;-81
2023/09/25 14:56:27;;;;;;;;;;;23.70;93.90;;;;;;6708509;88;20101;-80
2023/09/25 15:06:27;;;;;;;;;;;23.50;93.30;;;;;;6711390;88;20062;-81
2023/09/25 15:16:27;;;;;;;;;;;23.80;93.80;;;;;;6709298;88;20067;-81
2023/09/25 15:26:28;;;;;;;;;;;23.40;93.80;;;;;;6707786;88;20170;-82
2023/09/25 15:36:29;;;;;;;;;;;23.40;94.50;;;;;;6707195;88;20054;-81
2023/09/25 15:46:29;;;;;;;;;;;23.20;94.70;;;;;;6706138;88;20128;-80
2023/09/25 15:56:30;;;;;;;;;;;23.00;95.10;;;;;;6713167;88;20072;-80
2023/09/25 16:06:30;;;;;;;;;;;22.70;95.40;;;;;;6708283;88;20058;-80
2023/09/25 16:16:31;;;;;;;;;;;22.80;95.30;;;;;;6712806;88;20722;-81
2023/09/25 16:26:31;;;;;;;;;;;23.00;96.10;;;;;;6712413;88;20076;-80
2023/09/25 16:36:32;;;;;;;;;;;22.80;95.70;;;;;;6712022;88;20067;-80
2023/09/25 16:46:33;;;;;;;;;;;22.40;96.20;;;;;;6710080;88;20144;-80
2023/09/25 16:56:34;;;;;;;;;;;21.90;97.20;;;;;;6706188;88;20082;-79
2023/09/25 17:06:34;;;;;;;;;;;21.60;98.00;;;;;;6709697;88;20175;-80
2023/09/25 17:16:35;;;;;;;;;;;20.90;99.00;;;;;;6704790;88;20515;-81
2023/09/25 17:26:35;;;;;;;;;;;20.40;99.90;;;;;;6695676;89;20071;-80
2023/09/25 17:36:36;;;;;;;;;;;19.80;99.90;;;;;;6695709;88;20086;-80
2023/09/25 17:46:36;;;;;;;;;;;19.50;99.90;;;;;;6707221;88;20115;-79
2023/09/25 17:56:37;;;;;;;;;;;19.10;99.90;;;;;;6704142;88;20071;-79
2023/09/25 18:06:38;;;;;;;;;;;18.80;99.90;;;;;;6704606;88;20054;-78
2023/09/25 18:16:38;;;;;;;;;;;18.60;99.90;;;;;;6699851;88;20047;-78
2023/09/25 18:26:39;;;;;;;;;;;18.30;99.90;;;;;;6699709;88;20063;-77
2023/09/25 18:36:39;;;;;;;;;;;18.00;99.90;;;;;;6699492;88;20059;-77
2023/09/25 18:46:40;;;;;;;;;;;17.70;99.90;;;;;;6701388;88;20055;-78
2023/09/25 18:56:40;;;;;;;;;;;17.60;99.90;;;;;;6704077;88;20120;-80
2023/09/25 19:06:41;;;;;;;;;;;17.40;99.90;;;;;;6700368;88;20539;-79
2023/09/25 19:16:41;;;;;;;;;;;17.20;99.90;;;;;;6703162;88;20076;-78
2023/09/25 19:26:42;;;;;;;;;;;17.10;99.90;;;;;;6685867;88;20079;-78
2023/09/25 19:36:42;;;;;;;;;;;17.00;99.90;;;;;;6686733;88;20043;-79
2023/09/25 19:46:43;;;;;;;;;;;16.90;99.90;;;;;;6686554;88;20093;-79
2023/09/25 19:56:43;;;;;;;;;;;16.60;99.90;;;;;;6686302;88;20409;-80
2023/09/25 20:06:44;;;;;;;;;;;16.20;99.90;;;;;;6686555;89;20068;-79
2023/09/25 20:16:44;;;;;;;;;;;16.30;99.90;;;;;;6692488;88;20075;-79
2023/09/25 20:26:45;;;;;;;;;;;16.00;99.90;;;;;;6711491;88;20109;-80
2023/09/25 20:36:45;;;;;;;;;;;15.70;99.90;;;;;;6702479;88;20069;-80
2023/09/25 20:46:49;;;;;;;;;;;15.30;99.90;;;;;;6701389;88;20550;-79
2023/09/25 20:56:50;;;;;;;;;;;15.00;99.90;;;;;;6699593;88;20064;-78
2023/09/25 21:17:32;;;;;;;;;;;14.70;99.90;;;;;;6705871;88;20612;-80
2023/09/25 21:27:32;;;;;;;;;;;14.50;99.90;;;;;;6697740;88;20064;-80
2023/09/25 21:37:33;;;;;;;;;;;14.20;99.90;;;;;;6705975;88;20068;-81
2023/09/25 21:47:33;;;;;;;;;;;14.10;99.90;;;;;;6706175;88;20080;-79
2023/09/25 21:57:34;;;;;;;;;;;14.00;99.90;;;;;;6703073;88;20083;-80
2023/09/25 22:07:34;;;;;;;;;;;13.80;99.90;;;;;;6702553;88;20570;-80
2023/09/25 22:17:35;;;;;;;;;;;13.70;99.90;;;;;;6704054;88;20065;-81
2023/09/25 22:27:36;;;;;;;;;;;13.60;99.90;;;;;;6692689;88;20098;-79
2023/09/25 22:37:38;;;;;;;;;;;13.40;99.90;;;;;;6707794;88;20053;-81
2023/09/25 22:47:39;;;;;;;;;;;13.00;99.90;;;;;;6703420;88;20069;-80
2023/09/25 22:57:39;;;;;;;;;;;12.70;99.90;;;;;;6705360;88;20935;-79
2023/09/25 23:07:42;;;;;;;;;;;12.60;99.90;;;;;;6693443;88;20142;-79
2023/09/25 23:17:43;;;;;;;;;;;12.50;99.90;;;;;;6698491;88;20065;-79
2023/09/25 23:27:44;;;;;;;;;;;12.40;99.90;;;;;;6696172;88;20173;-79
2023/09/25 23:37:46;;;;;;;;;;;12.30;99.90;;;;;;6690569;88;20088;-79
2023/09/25 23:47:47;;;;;;;;;;;12.20;99.90;;;;;;6675860;88;20213;-79
2023/09/25 23:57:47;;;;;;;;;;;12.20;99.90;;;;;;6677945;88;20056;-79
